Time;durP1;ratioP1;P1;durP2;ratioP2;P2;SDS_P1;SDS_P2;PMS_P1;PMS_P2;Temp;Humidity;BMP_temperature;BMP_pressure;BME280_temperature;BME280_humidity;BME280_pressure;Samples;Min_cycle;Max_cycle;Signal;HPM_P1;HPM_P2
2023/06/06 00:00:16;;;;;;;5.57;3.60;;;18.10;61.10;;;;;;4992905;28;21698;-73
2023/06/06 00:02:45;;;;;;;7.07;3.63;;;18.10;61.20;;;;;;4994373;28;20886;-73
2023/06/06 00:05:13;;;;;;;5.55;3.53;;;18.10;61.10;;;;;;4995528;28;20050;-72
2023/06/06 00:07:40;;;;;;;6.85;3.97;;;18.20;60.60;;;;;;4994935;28;20058;-73
2023/06/06 00:10:11;;;;;;;8.70;4.10;;;18.20;60.20;;;;;;4994999;28;20441;-73
2023/06/06 00:12:41;;;;;;;5.78;3.72;;;18.20;60.30;;;;;;4996074;28;20452;-73
2023/06/06 00:15:09;;;;;;;6.20;3.63;;;18.10;60.50;;;;;;4994654;28;20110;-74
2023/06/06 00:17:38;;;;;;;6.18;3.80;;;18.00;60.90;;;;;;4995596;28;20048;-66
2023/06/06 00:20:09;;;;;;;7.05;4.03;;;17.90;60.90;;;;;;4993923;28;20551;-66
2023/06/06 00:22:36;;;;;;;5.35;3.25;;;18.00;60.80;;;;;;4995934;28;20073;-65
2023/06/06 00:25:04;;;;;;;6.90;3.72;;;17.90;61.20;;;;;;4994759;28;20050;-65
2023/06/06 00:27:34;;;;;;;5.75;3.65;;;17.80;61.60;;;;;;4995480;28;20405;-65
2023/06/06 00:30:01;;;;;;;5.95;3.67;;;17.70;62.20;;;;;;4995037;28;20455;-64
2023/06/06 00:32:28;;;;;;;6.57;3.40;;;17.60;62.40;;;;;;4992485;28;20497;-74
2023/06/06 00:34:55;;;;;;;7.20;3.75;;;17.60;62.50;;;;;;4976935;28;20054;-74
2023/06/06 00:37:22;;;;;;;6.15;3.58;;;17.60;62.80;;;;;;4993902;28;20044;-74
2023/06/06 00:39:49;;;;;;;6.32;3.30;;;17.50;63.00;;;;;;4994716;28;20061;-74
2023/06/06 00:42:16;;;;;;;6.88;3.80;;;17.50;63.20;;;;;;4972430;28;20297;-79
2023/06/06 00:44:44;;;;;;;5.07;3.30;;;17.40;63.50;;;;;;4994777;28;20041;-79
2023/06/06 00:47:13;;;;;;;5.80;3.40;;;17.30;63.70;;;;;;4987498;28;20070;-67
2023/06/06 00:49:42;;;;;;;5.57;3.33;;;17.30;63.90;;;;;;4992712;28;20042;-68
2023/06/06 00:52:10;;;;;;;5.97;3.70;;;17.30;64.10;;;;;;4993058;28;20042;-65
2023/06/06 00:54:38;;;;;;;6.07;3.63;;;17.20;64.30;;;;;;4994950;28;20046;-64
2023/06/06 00:57:07;;;;;;;6.32;3.78;;;17.20;64.60;;;;;;4993248;28;20894;-68
2023/06/06 00:59:34;;;;;;;6.35;3.80;;;17.10;64.80;;;;;;4995597;28;21289;-68
2023/06/06 01:02:04;;;;;;;6.53;3.50;;;17.10;64.80;;;;;;4985304;28;20409;-68
2023/06/06 01:04:31;;;;;;;;;;;17.10;65.00;;;;;;4995463;28;20049;-67
2023/06/06 01:06:58;;;;;;;6.07;3.70;;;17.10;65.10;;;;;;4995032;28;20400;-71
2023/06/06 01:09:25;;;;;;;5.65;3.95;;;17.00;65.30;;;;;;4994805;28;20050;-71
2023/06/06 01:11:59;;;;;;;7.18;3.92;;;17.00;65.40;;;;;;4977744;28;20072;-74
2023/06/06 01:14:47;;;;;;;5.45;3.58;;;16.90;65.50;;;;;;4993290;28;20593;-74
2023/06/06 01:17:18;;;;;;;7.53;3.90;;;16.90;65.60;;;;;;4977103;28;20053;-64
2023/06/06 01:19:49;;;;;;;6.97;4.25;;;16.90;65.80;;;;;;4974887;28;20509;-64
2023/06/06 01:22:22;;;;;;;;;;;16.80;65.90;;;;;;4977555;28;20049;-71
2023/06/06 01:24:52;;;;;;;6.38;3.80;;;16.70;66.00;;;;;;4985673;28;19965;-71
2023/06/06 01:27:21;;;;;;;6.90;4.05;;;16.70;66.20;;;;;;4990295;28;20108;-64
2023/06/06 01:29:48;;;;;;;7.13;4.25;;;16.80;65.90;;;;;;4976797;28;20046;-64
2023/06/06 01:32:22;;;;;;;6.35;4.20;;;16.80;65.80;;;;;;4967729;28;20050;-74
2023/06/06 01:34:55;;;;;;;5.88;3.70;;;16.70;65.90;;;;;;4996245;28;20049;-74
2023/06/06 01:37:34;;;;;;;7.05;3.42;;;16.70;66.20;;;;;;4995563;28;20540;-74
2023/06/06 01:40:05;;;;;;;7.47;3.53;;;16.60;66.50;;;;;;4995292;28;20046;-74
2023/06/06 01:42:35;;;;;;;7.45;4.00;;;16.60;66.70;;;;;;4977410;28;20050;-61
2023/06/06 01:45:03;;;;;;;5.82;4.10;;;16.60;66.80;;;;;;4994998;28;20054;-62
2023/06/06 01:47:30;;;;;;;5.72;3.80;;;16.50;66.90;;;;;;4985771;28;20060;-62
2023/06/06 01:49:58;;;;;;;5.90;3.65;;;16.50;66.90;;;;;;4977396;28;20042;-61
2023/06/06 01:52:28;;;;;;;5.75;3.58;;;16.40;67.00;;;;;;4993809;28;20050;-74
2023/06/06 01:54:55;;;;;;;5.65;3.70;;;16.40;67.10;;;;;;4994941;28;20072;-74
2023/06/06 01:57:23;;;;;;;8.45;4.10;;;16.40;67.10;;;;;;4993683;28;20055;-73
2023/06/06 01:59:50;;;;;;;6.93;3.58;;;16.40;67.30;;;;;;4976462;28;20042;-74
2023/06/06 02:02:17;;;;;;;6.10;3.88;;;16.30;67.50;;;;;;4976319;28;20125;-68
2023/06/06 02:04:44;;;;;;;6.50;4.00;;;16.20;67.60;;;;;;4993791;28;20190;-67
2023/06/06 02:07:12;;;;;;;6.25;4.03;;;16.20;67.60;;;;;;4986173;28;20042;-74
2023/06/06 02:09:42;;;;;;;6.97;4.03;;;16.20;67.70;;;;;;4977196;28;20049;-73
2023/06/06 02:12:10;;;;;;;6.40;4.28;;;16.20;67.90;;;;;;4970316;28;20050;-73
2023/06/06 02:14:37;;;;;;;7.45;4.40;;;16.10;67.80;;;;;;4993918;28;20076;-74
2023/06/06 02:17:05;;;;;;;7.38;4.75;;;16.10;67.80;;;;;;4995846;28;20046;-64
2023/06/06 02:19:32;;;;;;;8.43;4.60;;;16.10;68.00;;;;;;4976378;28;20117;-64
2023/06/06 02:22:01;;;;;;;5.95;3.95;;;16.00;68.20;;;;;;4975521;28;20042;-74
2023/06/06 02:24:28;;;;;;;5.82;3.85;;;16.10;67.80;;;;;;4994382;28;20050;-74
2023/06/06 02:26:57;;;;;;;7.80;3.95;;;16.10;67.80;;;;;;4977602;28;20421;-74
2023/06/06 02:29:24;;;;;;;6.07;3.90;;;16.10;67.30;;;;;;4976850;28;20105;-73
2023/06/06 02:31:52;;;;;;;6.53;4.22;;;16.20;67.30;;;;;;4992558;28;20050;-70
2023/06/06 02:34:19;;;;;;;7.10;4.18;;;16.00;67.60;;;;;;4995224;28;20053;-71
2023/06/06 02:36:48;;;;;;;8.32;4.00;;;16.00;67.90;;;;;;4977077;28;20052;-68
2023/06/06 02:39:15;;;;;;;6.50;3.90;;;16.00;67.70;;;;;;4997123;28;20438;-68
2023/06/06 02:41:42;;;;;;;5.60;3.50;;;15.90;68.00;;;;;;4977150;28;20054;-72
2023/06/06 02:44:11;;;;;;;5.65;3.47;;;15.80;68.30;;;;;;4995753;28;20141;-70
2023/06/06 02:46:37;;;;;;;6.55;4.05;;;15.80;68.60;;;;;;4976133;28;20513;-67
2023/06/06 02:49:04;;;;;;;5.32;3.55;;;15.80;68.70;;;;;;4977235;28;20049;-67
2023/06/06 02:51:31;;;;;;;5.30;3.40;;;15.70;68.80;;;;;;4994551;28;20129;-67
2023/06/06 02:53:58;;;;;;;6.55;4.20;;;15.70;68.90;;;;;;4993201;28;20065;-67
2023/06/06 02:56:25;;;;;;;6.68;3.75;;;15.70;69.00;;;;;;4989726;28;20046;-68
2023/06/06 02:58:53;;;;;;;6.25;3.92;;;15.70;68.80;;;;;;4977746;28;20133;-69
2023/06/06 03:01:21;;;;;;;5.90;4.15;;;15.70;68.90;;;;;;4976486;28;20046;-68
2023/06/06 03:03:49;;;;;;;6.60;3.72;;;15.70;68.50;;;;;;4996123;28;20046;-68
2023/06/06 03:06:16;;;;;;;5.70;3.83;;;15.60;68.70;;;;;;4995007;28;20050;-69
2023/06/06 03:08:43;;;;;;;7.75;3.78;;;15.60;68.60;;;;;;4981630;28;20050;-69
2023/06/06 03:11:10;;;;;;;5.75;4.10;;;15.70;68.30;;;;;;4978197;28;20046;-69
2023/06/06 03:13:37;;;;;;;6.80;3.65;;;15.70;68.60;;;;;;4977297;28;20062;-69
2023/06/06 03:16:06;;;;;;;5.40;3.70;;;15.60;68.80;;;;;;4993984;28;20042;-74
2023/06/06 03:18:36;;;;;;;5.53;3.42;;;15.60;69.00;;;;;;4981180;28;20058;-74
2023/06/06 03:21:08;;;;;;;5.70;3.63;;;15.50;69.20;;;;;;4980502;28;20510;-68
2023/06/06 03:23:42;;;;;;;5.53;3.97;;;15.40;69.50;;;;;;4981089;28;20482;-68
2023/06/06 03:26:09;;;;;;;7.28;3.90;;;15.40;69.70;;;;;;4979496;28;20060;-73
2023/06/06 03:28:37;;;;;;;6.30;3.60;;;15.30;69.90;;;;;;4977926;28;20521;-74
2023/06/06 03:31:05;;;;;;;6.07;3.80;;;15.30;70.10;;;;;;4997130;28;20102;-73
2023/06/06 03:33:38;;;;;;;5.63;3.47;;;15.30;70.00;;;;;;4980496;28;20062;-74
2023/06/06 03:36:07;;;;;;;5.22;3.70;;;15.20;70.10;;;;;;4979638;28;20125;-74
2023/06/06 03:38:34;;;;;;;6.32;4.35;;;15.20;69.90;;;;;;4979663;28;20390;-74
2023/06/06 03:41:02;;;;;;;6.20;3.67;;;15.20;70.10;;;;;;4981226;28;20072;-69
2023/06/06 03:43:30;;;;;;;7.18;4.57;;;15.20;70.30;;;;;;4980484;28;20057;-69
2023/06/06 03:45:58;;;;;;;6.53;3.97;;;15.20;70.20;;;;;;4968170;28;20447;-74
2023/06/06 03:48:25;;;;;;;6.95;4.68;;;15.10;70.30;;;;;;4979745;28;20050;-74
2023/06/06 03:50:54;;;;;;;7.20;4.25;;;15.20;70.00;;;;;;4981866;28;20054;-61
2023/06/06 03:53:21;;;;;;;7.00;4.40;;;15.20;70.10;;;;;;4997007;28;20042;-62
2023/06/06 03:55:47;;;;;;;6.50;4.22;;;15.10;70.50;;;;;;4996396;28;20052;-81
2023/06/06 03:58:15;;;;;;;7.47;4.10;;;15.10;70.70;;;;;;4990350;28;20042;-81
2023/06/06 04:00:43;;;;;;;6.78;4.22;;;15.10;70.90;;;;;;4993254;28;20057;-70
2023/06/06 04:03:10;;;;;;;6.68;3.60;;;15.10;70.80;;;;;;4996170;28;20393;-71
2023/06/06 04:05:37;;;;;;;6.25;4.07;;;15.10;70.90;;;;;;4978666;28;20054;-65
2023/06/06 04:08:07;;;;;;;6.78;3.75;;;15.10;70.90;;;;;;4995253;28;20054;-64
2023/06/06 04:10:34;;;;;;;9.00;4.40;;;15.10;70.80;;;;;;4979789;28;20050;-69
2023/06/06 04:13:01;;;;;;;8.48;4.40;;;15.10;71.00;;;;;;4990856;28;20042;-69
2023/06/06 04:15:29;;;;;;;6.93;4.05;;;15.10;71.40;;;;;;4976607;28;21066;-61
2023/06/06 04:17:55;;;;;;;6.53;4.30;;;15.00;71.80;;;;;;4995864;28;20045;-62
2023/06/06 04:20:23;;;;;;;6.72;4.13;;;15.00;72.00;;;;;;4980171;28;20049;-61
2023/06/06 04:22:50;;;;;;;10.23;4.50;;;15.00;72.00;;;;;;4979995;28;20404;-61
2023/06/06 04:25:19;;;;;;;8.05;4.40;;;15.00;72.10;;;;;;4996919;28;20602;-62
2023/06/06 04:27:48;;;;;;;6.03;4.20;;;15.00;72.30;;;;;;4983553;28;20066;-62
2023/06/06 04:30:22;;;;;;;7.13;4.95;;;15.00;72.50;;;;;;4992316;28;20046;-61
2023/06/06 04:32:50;;;;;;;8.38;4.93;;;15.10;72.50;;;;;;4994454;28;20043;-61
2023/06/06 04:35:18;;;;;;;6.97;5.00;;;15.00;72.70;;;;;;4978614;28;20042;-62
2023/06/06 04:37:48;;;;;;;5.93;4.43;;;15.10;72.50;;;;;;4993941;28;20077;-62
2023/06/06 04:40:15;;;;;;;7.88;4.50;;;15.10;72.20;;;;;;4978025;28;20050;-62
2023/06/06 04:42:45;;;;;;;7.07;4.22;;;15.10;71.90;;;;;;4995939;28;20050;-62
2023/06/06 04:45:15;;;;;;;6.95;4.00;;;15.10;71.80;;;;;;4995065;28;20089;-62
2023/06/06 04:47:44;;;;;;;;;;;15.10;71.80;;;;;;4976614;28;20057;-62
2023/06/06 04:50:12;;;;;;;7.10;4.32;;;15.10;71.90;;;;;;4959812;28;19936;-62
2023/06/06 04:52:39;;;;;;;7.05;4.70;;;15.10;71.90;;;;;;4978319;28;20129;-61
2023/06/06 04:55:07;;;;;;;5.90;4.20;;;15.10;72.10;;;;;;4997432;28;20067;-61
2023/06/06 04:57:34;;;;;;;8.55;4.30;;;15.10;71.90;;;;;;4994081;28;20056;-61
2023/06/06 05:00:05;;;;;;;8.68;4.40;;;15.20;71.70;;;;;;4996310;28;20368;-61
2023/06/06 05:02:32;;;;;;;8.63;4.50;;;15.30;71.50;;;;;;4996798;28;20054;-70
2023/06/06 05:04:59;;;;;;;7.25;4.68;;;15.40;71.20;;;;;;4993932;28;20047;-70
2023/06/06 05:07:26;;;;;;;7.95;4.60;;;15.40;70.70;;;;;;4994466;28;20080;-68
2023/06/06 05:09:53;;;;;;;6.68;4.68;;;15.50;70.60;;;;;;4994712;28;20061;-68
2023/06/06 05:12:21;;;;;;;7.65;5.15;;;15.50;70.70;;;;;;4995066;28;20501;-62
2023/06/06 05:14:48;;;;;;;8.02;4.85;;;15.50;70.40;;;;;;4997438;28;20441;-61
2023/06/06 05:17:20;;;;;;;6.55;4.70;;;15.50;70.30;;;;;;4993577;28;20113;-62
2023/06/06 05:19:47;;;;;;;8.32;4.90;;;15.50;70.40;;;;;;4993373;28;20052;-62
2023/06/06 05:22:14;;;;;;;7.65;4.90;;;15.60;70.20;;;;;;4996084;28;20053;-73
2023/06/06 05:24:41;;;;;;;7.47;4.68;;;15.50;70.10;;;;;;4995524;28;20082;-73
2023/06/06 05:27:08;;;;;;;7.68;4.15;;;15.60;69.90;;;;;;4993509;28;20038;-62
2023/06/06 05:29:35;;;;;;;8.32;4.38;;;15.60;69.70;;;;;;4994588;28;20061;-62
2023/06/06 05:32:02;;;;;;;6.97;4.30;;;15.60;69.70;;;;;;4997268;28;20034;-74
2023/06/06 05:34:30;;;;;;;6.82;4.30;;;15.60;70.00;;;;;;4994822;28;20592;-74
2023/06/06 05:36:57;;;;;;;7.93;4.60;;;15.70;70.00;;;;;;4988083;28;20054;-70
2023/06/06 05:39:24;;;;;;;7.63;4.57;;;15.70;70.00;;;;;;4992790;28;20054;-70
2023/06/06 05:41:54;;;;;;;6.78;4.43;;;15.70;70.00;;;;;;4996108;28;20131;-70
2023/06/06 05:44:21;;;;;;;7.40;4.80;;;15.70;70.10;;;;;;4992977;28;20038;-70
2023/06/06 05:46:53;;;;;;;6.88;4.20;;;15.70;69.60;;;;;;4995983;28;20140;-62
2023/06/06 05:49:20;;;;;;;7.70;4.65;;;15.80;69.90;;;;;;4992213;28;20125;-62
2023/06/06 05:51:48;;;;;;;5.50;3.80;;;15.80;70.00;;;;;;4990884;28;20045;-70
2023/06/06 05:54:15;;;;;;;7.05;4.32;;;15.90;69.90;;;;;;4994128;28;20073;-70
2023/06/06 05:56:42;;;;;;;7.57;4.60;;;15.90;70.00;;;;;;4995457;28;20081;-70
2023/06/06 05:59:09;;;;;;;7.63;4.40;;;15.90;70.20;;;;;;4993951;28;20046;-70
2023/06/06 06:01:39;;;;;;;5.18;3.55;;;15.90;70.10;;;;;;4990883;28;20054;-68
2023/06/06 06:04:08;;;;;;;7.25;4.43;;;16.00;70.10;;;;;;4995928;28;20065;-68
2023/06/06 06:06:35;;;;;;;7.90;4.30;;;16.00;69.70;;;;;;4994840;28;20057;-62
2023/06/06 06:09:05;;;;;;;7.57;4.13;;;16.00;70.00;;;;;;4991232;28;20046;-62
2023/06/06 06:11:32;;;;;;;6.20;4.40;;;16.10;70.10;;;;;;4991955;28;20046;-64
2023/06/06 06:13:59;;;;;;;8.95;5.45;;;16.10;69.70;;;;;;4996749;28;20046;-64
2023/06/06 06:16:25;;;;;;;10.75;6.32;;;16.20;69.30;;;;;;4992669;28;20069;-63
2023/06/06 06:18:52;;;;;;;9.32;6.53;;;16.20;69.20;;;;;;4995478;28;20053;-63
2023/06/06 06:21:21;;;;;;;11.95;7.40;;;16.30;69.20;;;;;;4993496;28;20058;-63
2023/06/06 06:23:49;;;;;;;11.43;7.43;;;16.30;69.60;;;;;;4980585;28;20042;-64
2023/06/06 06:26:21;;;;;;;10.48;7.30;;;16.30;69.60;;;;;;4970216;28;20046;-62
2023/06/06 06:28:50;;;;;;;9.80;6.78;;;16.40;69.80;;;;;;4991388;28;20042;-61
2023/06/06 06:31:16;;;;;;;8.63;6.43;;;16.50;69.60;;;;;;4985040;28;20054;-75
2023/06/06 06:33:45;;;;;;;9.90;6.57;;;16.50;69.40;;;;;;4994518;28;20117;-75
2023/06/06 06:36:12;;;;;;;11.55;6.20;;;16.60;69.50;;;;;;4993289;28;20042;-69
2023/06/06 06:38:39;;;;;;;8.38;5.90;;;16.80;69.80;;;;;;4995616;28;20043;-69
2023/06/06 06:41:06;;;;;;;9.73;6.35;;;16.90;69.80;;;;;;4991899;28;20045;-67
2023/06/06 06:43:34;;;;;;;8.52;5.85;;;17.10;69.30;;;;;;4999939;28;20050;-68
2023/06/06 06:46:09;;;;;;;8.13;5.90;;;17.20;69.30;;;;;;4978072;28;20054;-69
2023/06/06 06:48:36;;;;;;;7.45;5.40;;;17.40;69.00;;;;;;4998212;28;20105;-68
2023/06/06 06:51:03;;;;;;;11.65;6.13;;;17.60;68.30;;;;;;4978827;28;20053;-70
2023/06/06 06:53:31;;;;;;;10.38;6.88;;;17.70;68.10;;;;;;4997063;28;20060;-70
2023/06/06 06:55:59;;;;;;;9.68;6.47;;;17.90;67.40;;;;;;4995422;28;20057;-68
2023/06/06 06:58:33;;;;;;;7.78;5.47;;;18.10;66.40;;;;;;4993992;28;20477;-68
2023/06/06 07:01:02;;;;;;;8.75;5.07;;;18.10;66.40;;;;;;4997342;28;20438;-68
2023/06/06 07:03:29;;;;;;;7.45;4.70;;;18.30;66.10;;;;;;4997907;28;20073;-68
2023/06/06 07:05:57;;;;;;;9.73;4.93;;;18.50;65.60;;;;;;4996771;28;20055;-61
2023/06/06 07:08:24;;;;;;;8.07;5.05;;;18.60;65.40;;;;;;4994082;28;20049;-62
2023/06/06 07:10:51;;;;;;;8.43;4.45;;;18.80;65.00;;;;;;4996967;28;20037;-70
2023/06/06 07:13:18;;;;;;;7.32;4.50;;;19.00;64.60;;;;;;4996873;28;20168;-70
2023/06/06 07:15:45;;;;;;;7.25;4.50;;;19.20;64.30;;;;;;4996272;28;20565;-62
2023/06/06 07:18:13;;;;;;;6.95;4.60;;;19.40;64.00;;;;;;4999819;28;20042;-62
2023/06/06 07:20:41;;;;;;;9.30;4.65;;;19.50;63.50;;;;;;4996504;28;20060;-61
2023/06/06 07:23:08;;;;;;;6.28;3.85;;;19.60;63.20;;;;;;4992053;28;20146;-61
2023/06/06 07:25:35;;;;;;;6.32;4.05;;;19.70;61.80;;;;;;4993520;28;20053;-68
2023/06/06 07:28:02;;;;;;;5.32;3.78;;;19.90;60.90;;;;;;4995969;28;20456;-69
2023/06/06 07:30:28;;;;;;;9.25;4.13;;;20.00;60.50;;;;;;4993062;28;20552;-61
2023/06/06 07:32:55;;;;;;;5.55;4.00;;;20.20;59.10;;;;;;4998852;28;20405;-61
2023/06/06 07:35:30;;;;;;;9.38;3.78;;;20.30;58.30;;;;;;4995215;28;20688;-62
2023/06/06 07:37:56;;;;;;;6.47;3.45;;;20.50;57.40;;;;;;4997212;28;20050;-71
2023/06/06 07:40:23;;;;;;;6.53;3.65;;;20.60;55.50;;;;;;4995959;28;20053;-68
2023/06/06 07:42:50;;;;;;;6.78;3.75;;;20.60;55.10;;;;;;4994249;28;20085;-67
2023/06/06 07:45:17;;;;;;;6.28;3.38;;;20.80;55.20;;;;;;4996458;28;20054;-67
2023/06/06 07:47:44;;;;;;;5.47;3.40;;;21.00;54.30;;;;;;4993027;28;20050;-68
2023/06/06 07:50:11;;;;;;;5.60;3.50;;;21.10;54.30;;;;;;4995743;28;20108;-68
2023/06/06 07:52:43;;;;;;;4.88;3.00;;;21.20;54.00;;;;;;4994904;28;20125;-67
2023/06/06 07:55:11;;;;;;;5.47;3.47;;;21.20;53.80;;;;;;4995377;28;20053;-68
2023/06/06 07:57:39;;;;;;;6.95;3.90;;;21.40;53.20;;;;;;4995753;28;20042;-82
2023/06/06 08:00:10;;;;;;;8.05;3.13;;;21.50;53.00;;;;;;4996757;28;20129;-80
2023/06/06 08:02:39;;;;;;;5.30;3.42;;;21.70;52.80;;;;;;4993152;28;24138;-69
2023/06/06 08:05:07;;;;;;;5.95;3.15;;;21.90;52.10;;;;;;4997880;28;20050;-69
2023/06/06 08:07:35;;;;;;;5.43;3.63;;;22.00;52.20;;;;;;4995537;28;20046;-70
2023/06/06 08:10:03;;;;;;;5.50;3.78;;;22.00;52.00;;;;;;4996399;28;20046;-69
2023/06/06 08:12:30;;;;;;;6.43;4.00;;;22.10;52.00;;;;;;4997315;28;20401;-70
2023/06/06 08:14:59;;;;;;;6.97;3.50;;;22.20;52.00;;;;;;4996675;28;20045;-69
2023/06/06 08:17:25;;;;;;;7.85;3.95;;;22.30;52.00;;;;;;4991880;28;20042;-74
2023/06/06 08:19:52;;;;;;;7.18;4.18;;;22.40;52.00;;;;;;4995912;28;20053;-74
2023/06/06 08:22:19;;;;;;;5.30;3.60;;;22.50;51.70;;;;;;4990309;28;20046;-73
2023/06/06 08:24:46;;;;;;;6.35;3.90;;;22.70;51.50;;;;;;4997775;28;20053;-73
2023/06/06 08:27:14;;;;;;;5.85;4.10;;;22.80;51.00;;;;;;4998079;28;20465;-73
2023/06/06 08:29:41;;;;;;;5.50;3.60;;;22.90;51.20;;;;;;4992280;28;20050;-73
2023/06/06 08:32:09;;;;;;;5.53;3.75;;;23.00;51.20;;;;;;4993602;28;20049;-73
2023/06/06 08:34:36;;;;;;;6.60;4.72;;;23.10;50.90;;;;;;4995738;28;20462;-73
2023/06/06 08:37:03;;;;;;;7.38;5.47;;;23.30;50.50;;;;;;4998983;28;20042;-82
2023/06/06 08:39:30;;;;;;;9.25;5.30;;;23.40;49.90;;;;;;4980594;28;20052;-82
2023/06/06 08:41:57;;;;;;;7.03;4.70;;;23.30;50.60;;;;;;4995763;28;20058;-62
2023/06/06 08:44:25;;;;;;;8.82;4.82;;;23.60;50.30;;;;;;4993371;28;20088;-61
2023/06/06 08:46:54;;;;;;;7.15;4.53;;;23.70;50.00;;;;;;4995859;28;20401;-62
2023/06/06 08:49:21;;;;;;;6.73;4.77;;;23.80;50.40;;;;;;4995022;28;20070;-62
2023/06/06 08:51:50;;;;;;;7.03;5.15;;;23.90;50.10;;;;;;4991401;28;20046;-68
2023/06/06 08:54:19;;;;;;;9.85;6.10;;;24.10;49.70;;;;;;4993311;28;20489;-68
2023/06/06 08:56:46;;;;;;;10.50;7.43;;;24.20;49.40;;;;;;4991271;28;20054;-69
2023/06/06 08:59:15;;;;;;;8.75;6.80;;;24.30;49.00;;;;;;4989358;28;20053;-69
2023/06/06 09:01:44;;;;;;;10.43;6.30;;;24.30;49.20;;;;;;4992169;28;20062;-69
2023/06/06 09:04:13;;;;;;;10.38;6.30;;;24.40;49.30;;;;;;4994514;28;20046;-69
2023/06/06 09:06:43;;;;;;;10.00;5.72;;;24.50;49.40;;;;;;4995008;28;20493;-69
2023/06/06 09:09:14;;;;;;;9.32;5.88;;;24.60;49.10;;;;;;4997107;28;20054;-69
2023/06/06 09:11:41;;;;;;;7.97;5.07;;;24.70;49.10;;;;;;4989552;28;20100;-68
2023/06/06 09:14:08;;;;;;;7.03;5.00;;;24.80;48.50;;;;;;4976798;28;20050;-69
2023/06/06 09:16:42;;;;;;;6.78;4.22;;;25.00;48.20;;;;;;4993055;28;20057;-69
2023/06/06 09:19:14;;;;;;;10.18;4.72;;;24.90;48.40;;;;;;4995743;28;20052;-69
2023/06/06 09:21:44;;;;;;;7.30;4.25;;;25.00;48.10;;;;;;4995877;28;20061;-69
2023/06/06 09:24:16;;;;;;;7.93;4.85;;;25.10;48.40;;;;;;4993384;28;20038;-69
2023/06/06 09:26:46;;;;;;;7.25;4.28;;;25.30;47.90;;;;;;4982338;28;20260;-69
2023/06/06 09:29:30;;;;;;;5.82;4.35;;;25.40;47.50;;;;;;4988204;28;20042;-69
2023/06/06 09:32:02;;;;;;;10.57;5.22;;;25.50;47.50;;;;;;4990175;28;20052;-69
2023/06/06 09:34:30;;;;;;;9.27;5.70;;;25.60;46.90;;;;;;4995433;28;23194;-69
2023/06/06 09:36:59;;;;;;;12.70;6.07;;;25.60;46.80;;;;;;4982322;28;20077;-69
2023/06/06 09:39:26;;;;;;;11.38;5.85;;;25.80;46.10;;;;;;4990053;28;20136;-69
2023/06/06 09:41:56;;;;;;;9.55;6.40;;;25.80;46.20;;;;;;4995549;28;20058;-69
2023/06/06 09:44:23;;;;;;;10.52;7.65;;;25.80;45.90;;;;;;4993958;28;20505;-69
2023/06/06 09:46:51;;;;;;;9.73;6.20;;;25.90;45.60;;;;;;4988688;28;20489;-69
2023/06/06 09:49:20;;;;;;;8.85;6.55;;;26.00;44.70;;;;;;4996500;28;20129;-69
2023/06/06 09:51:48;;;;;;;;;;;26.10;44.80;;;;;;4985578;28;20054;-69
2023/06/06 09:54:19;;;;;;;10.82;5.38;;;26.10;44.60;;;;;;4993285;28;19968;-69
2023/06/06 09:56:49;;;;;;;6.13;4.10;;;26.10;44.50;;;;;;4987455;28;20490;-69
2023/06/06 09:59:17;;;;;;;6.05;4.35;;;26.10;44.10;;;;;;4993415;28;20054;-68
2023/06/06 10:01:46;;;;;;;5.82;4.25;;;26.20;44.10;;;;;;4996069;28;20054;-69
2023/06/06 10:04:13;;;;;;;7.72;4.45;;;26.30;43.80;;;;;;4995624;28;20075;-69
2023/06/06 10:06:43;;;;;;;9.55;7.05;;;26.50;43.40;;;;;;4993795;28;20050;-69
2023/06/06 10:09:12;;;;;;;9.93;5.65;;;26.50;43.60;;;;;;4991430;28;20101;-69
2023/06/06 10:11:41;;;;;;;6.32;4.65;;;26.60;43.20;;;;;;4988838;28;20060;-69
2023/06/06 10:14:08;;;;;;;7.37;4.90;;;26.80;42.60;;;;;;4991136;28;20043;-69
2023/06/06 10:16:36;;;;;;;6.50;4.47;;;26.80;42.50;;;;;;4992746;28;20404;-69
2023/06/06 10:19:04;;;;;;;5.60;3.65;;;26.90;41.60;;;;;;5000696;28;20088;-69
2023/06/06 10:21:32;;;;;;;9.82;3.80;;;26.90;41.80;;;;;;5000363;28;20149;-69
2023/06/06 10:23:59;;;;;;;5.75;3.75;;;26.90;41.10;;;;;;4999466;28;20050;-68
2023/06/06 10:26:31;;;;;;;7.18;3.60;;;27.10;40.30;;;;;;4991296;28;20050;-69
2023/06/06 10:29:03;;;;;;;4.78;3.08;;;27.20;40.50;;;;;;4999629;28;20048;-69
2023/06/06 10:31:37;;;;;;;5.30;3.47;;;27.30;39.60;;;;;;4997952;28;20057;-69
2023/06/06 10:34:08;;;;;;;9.18;6.78;;;27.10;39.60;;;;;;4998868;28;20049;-69
2023/06/06 10:36:40;;;;;;;7.18;5.25;;;26.90;39.30;;;;;;4991034;28;20072;-68
2023/06/06 10:39:18;;;;;;;5.90;4.22;;;26.90;39.60;;;;;;4997539;28;20060;-68
2023/06/06 10:41:52;;;;;;;5.63;3.28;;;27.10;39.40;;;;;;5000565;28;20050;-68
2023/06/06 10:44:26;;;;;;;8.40;2.92;;;27.10;39.30;;;;;;4997901;28;20057;-69
2023/06/06 10:47:23;;;;;;;4.45;2.83;;;27.00;38.30;;;;;;4995754;28;20146;-69
2023/06/06 10:50:17;;;;;;;4.57;2.97;;;27.10;38.20;;;;;;4996481;28;20047;-68
2023/06/06 10:52:45;;;;;;;5.40;3.30;;;27.30;38.20;;;;;;4992891;28;20129;-68
2023/06/06 10:55:15;;;;;;;5.55;3.10;;;27.50;38.30;;;;;;4996198;28;20127;-68
2023/06/06 10:57:55;;;;;;;4.45;2.47;;;27.60;38.20;;;;;;4993872;28;20715;-68
2023/06/06 11:00:24;;;;;;;8.70;5.50;;;27.60;38.40;;;;;;4991912;28;20050;-69
2023/06/06 11:02:51;;;;;;;;;;;27.40;37.40;;;;;;4997515;28;20060;-69
2023/06/06 11:05:18;;;;;;;5.38;3.25;;;27.20;37.60;;;;;;4991385;28;19937;-69
2023/06/06 11:07:49;;;;;;;5.57;3.03;;;27.20;37.20;;;;;;4994777;28;20062;-68
2023/06/06 11:10:21;;;;;;;5.07;2.60;;;27.50;37.80;;;;;;4995628;28;20054;-69
2023/06/06 11:12:50;;;;;;;4.70;2.95;;;27.60;37.90;;;;;;4997719;28;20105;-69
2023/06/06 11:15:28;;;;;;;5.50;3.00;;;27.60;38.30;;;;;;4995066;28;20114;-69
2023/06/06 11:18:01;;;;;;;4.53;2.50;;;27.30;37.70;;;;;;4997891;28;20142;-69
2023/06/06 11:20:28;;;;;;;4.35;2.78;;;27.20;38.10;;;;;;4979810;28;20120;-69
2023/06/06 11:23:01;;;;;;;3.92;2.58;;;27.40;37.50;;;;;;4994055;28;20077;-68
2023/06/06 11:25:30;;;;;;;5.20;2.72;;;27.40;37.10;;;;;;4996892;28;20498;-68
2023/06/06 11:27:59;;;;;;;4.28;2.50;;;27.20;36.90;;;;;;4996058;28;20050;-69
2023/06/06 11:30:30;;;;;;;3.42;2.22;;;27.00;37.00;;;;;;4996572;28;20789;-69
2023/06/06 11:32:57;;;;;;;4.10;2.35;;;26.80;36.90;;;;;;4997008;28;20050;-69
2023/06/06 11:35:27;;;;;;;3.30;2.20;;;26.80;37.30;;;;;;4996923;28;20046;-69
2023/06/06 11:37:55;;;;;;;4.22;2.42;;;27.10;37.50;;;;;;4995144;28;20081;-69
2023/06/06 11:40:25;;;;;;;4.35;2.65;;;27.40;37.30;;;;;;4993070;28;20041;-69
2023/06/06 11:42:52;;;;;;;4.32;2.40;;;27.40;36.90;;;;;;4996058;28;20148;-69
2023/06/06 11:45:21;;;;;;;3.53;2.40;;;27.30;36.00;;;;;;4990622;28;20462;-69
2023/06/06 11:47:48;;;;;;;4.97;2.20;;;27.00;36.00;;;;;;4998720;28;20437;-68
2023/06/06 11:50:27;;;;;;;4.18;2.20;;;26.90;36.30;;;;;;4991905;28;20050;-69
2023/06/06 11:52:54;;;;;;;4.35;2.50;;;26.90;36.50;;;;;;4995898;28;20061;-69
2023/06/06 11:55:35;;;;;;;6.60;2.40;;;27.00;36.40;;;;;;4997151;28;20041;-70
2023/06/06 11:58:03;;;;;;;5.25;2.22;;;27.10;37.10;;;;;;4993582;28;20129;-69
2023/06/06 12:00:31;;;;;;;4.87;2.70;;;27.30;36.60;;;;;;4996238;28;20065;-68
2023/06/06 12:03:02;;;;;;;4.65;2.58;;;27.30;36.20;;;;;;4998732;28;20456;-71
2023/06/06 12:05:30;;;;;;;4.40;2.40;;;27.30;35.30;;;;;;4996927;28;20144;-67
2023/06/06 12:08:00;;;;;;;6.20;2.53;;;27.10;36.00;;;;;;4994411;28;20105;-68
2023/06/06 12:10:28;;;;;;;3.75;2.25;;;26.90;35.70;;;;;;4990061;28;20089;-68
2023/06/06 12:12:56;;;;;;;5.93;2.72;;;26.70;35.50;;;;;;4993248;28;20050;-69
2023/06/06 12:15:27;;;;;;;5.13;2.80;;;26.60;35.30;;;;;;4982472;28;20053;-69
2023/06/06 12:18:02;;;;;;;5.72;3.05;;;26.80;35.10;;;;;;4997235;28;20141;-68
2023/06/06 12:20:29;;;;;;;6.85;2.95;;;26.90;35.20;;;;;;4994058;28;20096;-70
2023/06/06 12:22:56;;;;;;;4.78;2.28;;;27.00;34.40;;;;;;4998459;28;20045;-69
2023/06/06 12:25:27;;;;;;;4.10;2.25;;;27.10;34.40;;;;;;4997413;28;20096;-69
2023/06/06 12:27:54;;;;;;;5.32;2.38;;;27.10;34.20;;;;;;4991819;28;20312;-69
2023/06/06 12:30:30;;;;;;;4.72;2.60;;;27.20;34.60;;;;;;4995465;28;20056;-68
2023/06/06 12:33:01;;;;;;;6.85;2.30;;;27.30;34.00;;;;;;4998174;28;20069;-69
2023/06/06 12:35:28;;;;;;;5.00;2.70;;;27.30;33.90;;;;;;4997727;28;20038;-68
2023/06/06 12:37:55;;;;;;;5.32;2.30;;;27.30;34.20;;;;;;4990995;28;20061;-68
2023/06/06 12:40:27;;;;;;;5.05;2.60;;;27.30;34.50;;;;;;4994803;28;20425;-68
2023/06/06 12:42:55;;;;;;;4.65;2.40;;;27.20;34.50;;;;;;4996377;28;20091;-68
2023/06/06 12:45:22;;;;;;;3.88;2.13;;;27.20;35.30;;;;;;4993906;28;20050;-67
2023/06/06 12:47:50;;;;;;;3.92;2.00;;;27.10;34.30;;;;;;4994595;28;20042;-67
2023/06/06 12:50:20;;;;;;;4.00;2.22;;;27.10;35.30;;;;;;4995542;28;20092;-67
2023/06/06 12:52:47;;;;;;;4.18;2.03;;;27.00;34.20;;;;;;4987548;28;20065;-68
2023/06/06 12:55:14;;;;;;;4.97;2.50;;;27.00;34.30;;;;;;4992416;28;20056;-68